createdAt,value
2018-06-05T00:00:35.893Z,22.70
2018-06-05T00:03:05.215Z,23.90
2018-06-05T00:05:34.213Z,22.90
2018-06-05T00:08:04.253Z,22.80
2018-06-05T00:10:33.271Z,23.13
2018-06-05T00:13:02.269Z,23.30
2018-06-05T00:15:31.251Z,22.40
2018-06-05T00:18:00.248Z,24.13
2018-06-05T00:20:29.282Z,24.50
2018-06-05T00:23:20.672Z,24.27
2018-06-05T00:25:49.700Z,23.97
2018-06-05T00:28:18.689Z,24.37
2018-06-05T00:30:47.688Z,23.50
2018-06-05T00:33:16.692Z,23.53
2018-06-05T00:35:45.672Z,24.33
2018-06-05T00:38:14.662Z,25.67
2018-06-05T00:40:43.650Z,24.60
2018-06-05T00:43:12.648Z,24.13
2018-06-05T00:45:50.243Z,25.23
2018-06-05T00:48:19.206Z,25.00
2018-06-05T00:50:48.233Z,23.63
2018-06-05T00:53:17.331Z,23.97
2018-06-05T00:55:46.380Z,26.03
2018-06-05T00:58:15.387Z,25.23
2018-06-05T01:00:44.423Z,25.50
2018-06-05T01:03:13.385Z,26.27
2018-06-05T01:05:42.386Z,25.60
2018-06-05T01:08:11.384Z,26.97
2018-06-05T01:10:40.394Z,25.00
2018-06-05T01:13:09.423Z,26.43
2018-06-05T01:15:38.415Z,25.73
2018-06-05T01:18:07.425Z,26.80
2018-06-05T01:20:36.455Z,28.03
2018-06-05T01:23:05.609Z,28.07
2018-06-05T01:25:34.657Z,28.47
2018-06-05T01:28:03.732Z,27.07
2018-06-05T01:30:32.761Z,27.47
2018-06-05T01:33:01.777Z,27.20
2018-06-05T01:35:30.799Z,31.10
2018-06-05T01:37:59.772Z,31.13
2018-06-05T01:40:28.803Z,31.20
2018-06-05T01:42:57.829Z,32.67
2018-06-05T01:45:26.810Z,30.40
2018-06-05T01:47:55.789Z,29.90
2018-06-05T01:50:24.793Z,30.63
2018-06-05T01:52:53.801Z,30.13
2018-06-05T01:55:22.820Z,30.17
2018-06-05T01:57:51.819Z,32.17
2018-06-05T02:00:20.845Z,30.17
2018-06-05T02:02:49.853Z,29.87
2018-06-05T02:05:18.865Z,30.13
2018-06-05T02:07:47.863Z,30.63
2018-06-05T02:10:16.957Z,27.80
2018-06-05T02:12:45.943Z,30.13
2018-06-05T02:15:14.929Z,30.03
2018-06-05T02:17:43.941Z,30.70
2018-06-05T02:20:12.947Z,30.30
2018-06-05T02:22:41.981Z,30.80
2018-06-05T02:25:10.979Z,31.57
2018-06-05T02:27:39.965Z,31.13
2018-06-05T02:30:08.985Z,31.57
2018-06-05T02:32:38.099Z,32.17
2018-06-05T02:35:07.081Z,30.90
2018-06-05T02:37:36.065Z,31.63
2018-06-05T02:40:04.772Z,31.03
2018-06-05T02:42:33.679Z,32.83
2018-06-05T02:45:02.703Z,31.27
2018-06-05T02:47:31.833Z,32.80
2018-06-05T02:50:00.839Z,32.20
2018-06-05T02:52:29.868Z,33.03
2018-06-05T02:54:58.865Z,32.10
2018-06-05T02:57:27.841Z,33.37
2018-06-05T02:59:56.856Z,31.60
2018-06-05T03:02:25.912Z,32.67
2018-06-05T03:04:54.885Z,30.93
2018-06-05T03:07:23.857Z,30.67
2018-06-05T03:09:52.957Z,29.60
2018-06-05T03:12:22.099Z,28.30
2018-06-05T03:14:51.065Z,29.60
2018-06-05T03:17:19.805Z,29.07
2018-06-05T03:19:48.728Z,30.13
2018-06-05T03:22:17.744Z,29.67
2018-06-05T03:24:46.739Z,29.17
2018-06-05T03:27:15.728Z,28.33
2018-06-05T03:29:44.917Z,28.20
2018-06-05T03:32:14.651Z,28.40
2018-06-05T03:34:43.649Z,28.37
2018-06-05T03:37:12.717Z,27.37
2018-06-05T03:39:41.629Z,29.13
2018-06-05T03:42:10.580Z,27.97
2018-06-05T03:44:39.616Z,27.53
2018-06-05T03:47:08.577Z,28.80
2018-06-05T03:49:42.075Z,28.17
2018-06-05T03:52:11.251Z,28.07
2018-06-05T03:54:40.573Z,27.50
2018-06-05T03:57:09.591Z,26.67
2018-06-05T03:59:38.681Z,27.50
2018-06-05T04:02:07.616Z,27.77
2018-06-05T04:04:36.638Z,26.70
2018-06-05T04:07:05.598Z,28.10
2018-06-05T04:09:34.579Z,27.97
2018-06-05T04:12:03.604Z,27.67
2018-06-05T04:14:34.009Z,26.27
2018-06-05T04:17:03.057Z,27.50
2018-06-05T04:19:32.172Z,27.43
2018-06-05T04:22:01.088Z,27.10
2018-06-05T04:24:30.094Z,27.30
2018-06-05T04:26:59.030Z,26.77
2018-06-05T04:29:28.001Z,28.53
2018-06-05T04:31:56.940Z,27.30
2018-06-05T04:34:25.932Z,25.17
2018-06-05T04:36:54.877Z,25.67
2018-06-05T04:39:23.840Z,25.37
2018-06-05T04:41:52.776Z,25.97
2018-06-05T04:44:21.823Z,25.03
2018-06-05T04:46:50.768Z,24.93
2018-06-05T04:49:19.697Z,26.43
2018-06-05T04:51:48.776Z,25.83
2018-06-05T04:54:17.738Z,24.47
2018-06-05T04:56:46.676Z,24.63
2018-06-05T04:59:15.661Z,24.07
2018-06-05T05:01:44.617Z,23.77
2018-06-05T05:04:13.741Z,24.10
2018-06-05T05:06:42.739Z,24.50
2018-06-05T05:09:11.710Z,23.83
2018-06-05T05:11:40.657Z,23.03
2018-06-05T05:14:09.657Z,22.57
2018-06-05T05:16:38.928Z,21.90
2018-06-05T05:19:07.963Z,21.23
2018-06-05T05:21:36.954Z,21.40
2018-06-05T05:24:06.016Z,21.00
2018-06-05T05:26:34.997Z,21.57
2018-06-05T05:29:04.014Z,21.30
2018-06-05T05:31:33.049Z,20.63
2018-06-05T05:34:02.070Z,21.47
2018-06-05T05:36:31.078Z,20.43
2018-06-05T05:39:00.081Z,20.47
2018-06-05T05:41:29.103Z,20.30
2018-06-05T05:43:58.245Z,19.67
2018-06-05T05:46:27.203Z,21.23
2018-06-05T05:48:56.197Z,20.13
2018-06-05T05:51:25.205Z,19.57
2018-06-05T05:53:54.213Z,20.13
2018-06-05T05:56:23.241Z,19.33
2018-06-05T05:58:59.883Z,20.30
2018-06-05T06:01:28.939Z,19.60
2018-06-05T06:03:58.661Z,20.17
2018-06-05T06:06:27.683Z,19.90
2018-06-05T06:08:56.675Z,19.57
2018-06-05T06:11:25.698Z,19.57
2018-06-05T06:13:54.868Z,19.97
2018-06-05T06:16:23.905Z,22.00
2018-06-05T06:18:53.009Z,21.57
2018-06-05T06:21:22.009Z,21.70
2018-06-05T06:23:51.033Z,22.33
2018-06-05T06:26:20.141Z,21.93
2018-06-05T06:28:49.237Z,20.77
2018-06-05T06:31:18.331Z,22.87
2018-06-05T06:33:47.352Z,22.97
2018-06-05T06:36:16.360Z,22.07
2018-06-05T06:38:45.380Z,24.07
2018-06-05T06:41:14.393Z,23.57
2018-06-05T06:43:43.430Z,22.40
2018-06-05T06:46:12.484Z,22.63
2018-06-05T06:48:41.571Z,23.40
2018-06-05T06:51:10.469Z,23.13
2018-06-05T06:53:39.492Z,23.23
2018-06-05T06:56:08.563Z,21.77
2018-06-05T06:58:37.581Z,23.37
2018-06-05T07:01:06.812Z,22.93
2018-06-05T07:03:35.863Z,23.50
2018-06-05T07:06:04.875Z,23.00
2018-06-05T07:08:33.881Z,23.20
2018-06-05T07:11:02.901Z,21.27
2018-06-05T07:13:31.921Z,21.27
2018-06-05T07:16:00.956Z,21.37
2018-06-05T07:18:29.975Z,21.30
2018-06-05T07:20:59.003Z,21.90
2018-06-05T07:23:28.029Z,21.70
2018-06-05T07:25:57.057Z,21.57
2018-06-05T07:28:26.037Z,20.83
2018-06-05T07:30:55.007Z,21.87
2018-06-05T07:33:24.013Z,21.33
2018-06-05T07:35:53.079Z,22.00
2018-06-05T07:38:22.048Z,21.20
2018-06-05T07:40:51.001Z,20.87
2018-06-05T07:43:20.017Z,20.80
2018-06-05T07:45:49.065Z,20.20
2018-06-05T07:48:18.069Z,19.53
2018-06-05T07:50:47.054Z,20.70
2018-06-05T07:53:16.069Z,19.80
2018-06-05T07:55:45.132Z,20.43
2018-06-05T07:58:14.139Z,20.37
2018-06-05T08:00:43.194Z,20.43
2018-06-05T08:03:12.149Z,20.23
2018-06-05T08:05:41.221Z,21.60
2018-06-05T08:08:10.213Z,21.23
2018-06-05T08:10:39.221Z,20.20
2018-06-05T08:13:08.261Z,19.73
2018-06-05T08:15:37.310Z,19.33
2018-06-05T08:18:06.327Z,19.93
2018-06-05T08:20:35.344Z,20.03
2018-06-05T08:23:04.326Z,19.37
2018-06-05T08:25:33.350Z,20.37
2018-06-05T08:28:02.353Z,21.20
2018-06-05T08:30:31.345Z,20.80
2018-06-05T08:33:00.343Z,21.13
2018-06-05T08:35:29.557Z,20.33
2018-06-05T08:37:58.583Z,23.43
2018-06-05T08:40:27.603Z,23.80
2018-06-05T08:42:56.624Z,22.27
2018-06-05T08:45:25.615Z,21.30
2018-06-05T08:47:54.636Z,20.80
2018-06-05T08:50:23.632Z,22.07
2018-06-05T08:52:52.764Z,22.23
2018-06-05T08:55:21.842Z,21.17
2018-06-05T08:57:50.958Z,21.37
2018-06-05T09:00:20.006Z,20.77
2018-06-05T09:02:49.024Z,21.93
2018-06-05T09:05:18.055Z,22.50
2018-06-05T09:07:47.082Z,21.87
2018-06-05T09:10:16.075Z,22.43
2018-06-05T09:12:46.119Z,21.80
2018-06-05T09:15:15.230Z,23.07
2018-06-05T09:17:44.000Z,23.97
2018-06-05T09:20:12.912Z,24.67
2018-06-05T09:22:41.734Z,24.03
2018-06-05T09:25:10.644Z,25.87
2018-06-05T09:27:39.698Z,25.03
2018-06-05T09:30:10.620Z,25.17
2018-06-05T09:32:39.602Z,24.70
2018-06-05T09:35:08.680Z,24.07
2018-06-05T09:37:38.556Z,25.03
2018-06-05T09:40:07.647Z,25.30
2018-06-05T09:42:36.724Z,24.07
2018-06-05T09:45:05.744Z,23.53
2018-06-05T09:47:34.767Z,24.13
2018-06-05T09:50:03.786Z,24.27
2018-06-05T09:52:32.788Z,24.33
2018-06-05T09:55:01.621Z,26.67
2018-06-05T09:57:30.617Z,26.03
2018-06-05T09:59:59.598Z,25.73
2018-06-05T10:02:28.674Z,25.47
2018-06-05T10:04:57.683Z,25.37
2018-06-05T10:07:26.741Z,24.97
2018-06-05T10:09:55.798Z,25.27
2018-06-05T10:12:24.869Z,25.67
2018-06-05T10:14:53.896Z,23.93
2018-06-05T10:17:22.898Z,23.77
2018-06-05T10:19:52.462Z,22.13
2018-06-05T10:22:21.449Z,24.60
2018-06-05T10:24:50.495Z,24.07
2018-06-05T10:27:19.554Z,23.93
2018-06-05T10:29:48.553Z,23.73
2018-06-05T10:32:17.634Z,24.07
2018-06-05T10:34:46.773Z,24.40
2018-06-05T10:37:15.821Z,24.20
2018-06-05T10:39:44.825Z,23.47
2018-06-05T10:42:13.789Z,23.77
2018-06-05T10:44:42.809Z,25.47
2018-06-05T10:47:12.405Z,25.70
2018-06-05T10:49:41.511Z,26.83
2018-06-05T10:52:10.497Z,26.27
2018-06-05T10:54:39.549Z,27.40
2018-06-05T10:57:08.553Z,27.50
2018-06-05T10:59:37.509Z,26.87
2018-06-05T11:02:06.568Z,29.30
2018-06-05T11:04:35.581Z,28.33
2018-06-05T11:07:04.676Z,25.10
2018-06-05T11:09:33.857Z,23.40
2018-06-05T11:12:02.823Z,24.53
2018-06-05T11:14:31.843Z,23.23
2018-06-05T11:17:00.871Z,22.27
2018-06-05T11:19:29.876Z,23.13
2018-06-05T11:21:58.853Z,24.77
2018-06-05T11:24:27.853Z,25.70
2018-06-05T11:26:56.864Z,27.97
2018-06-05T11:29:25.888Z,27.30
2018-06-05T11:31:54.885Z,27.20
2018-06-05T11:34:23.992Z,25.50
2018-06-05T11:36:53.027Z,28.37
2018-06-05T11:39:22.089Z,27.77
2018-06-05T11:41:51.099Z,28.10
2018-06-05T11:44:20.085Z,26.47
2018-06-05T11:46:49.166Z,28.43
2018-06-05T11:49:18.205Z,27.77
2018-06-05T11:51:47.225Z,28.77
2018-06-05T11:54:16.256Z,31.27
2018-06-05T11:56:45.204Z,30.50
2018-06-05T11:59:14.256Z,30.50
2018-06-05T12:01:43.445Z,31.97
2018-06-05T12:04:12.375Z,32.07
2018-06-05T12:06:41.371Z,29.50
2018-06-05T12:09:10.614Z,32.57
2018-06-05T12:11:39.590Z,33.87
2018-06-05T12:14:08.554Z,33.90
2018-06-05T12:16:37.590Z,32.53
2018-06-05T12:19:06.644Z,33.03
2018-06-05T12:21:35.616Z,32.70
2018-06-05T12:24:04.597Z,32.27
2018-06-05T12:26:33.650Z,31.83
2018-06-05T12:29:02.671Z,31.60
2018-06-05T12:31:31.703Z,30.30
2018-06-05T12:34:01.257Z,29.83
2018-06-05T12:36:30.263Z,29.93
2018-06-05T12:38:59.276Z,28.93
2018-06-05T12:41:28.268Z,29.37
2018-06-05T12:43:57.258Z,28.83
2018-06-05T12:46:26.241Z,28.77
2018-06-05T12:48:55.270Z,29.13
2018-06-05T12:51:24.258Z,28.33
2018-06-05T12:53:53.215Z,29.40
2018-06-05T12:56:22.230Z,29.73
2018-06-05T12:58:51.238Z,30.80
2018-06-05T13:01:20.323Z,31.07
2018-06-05T13:03:49.282Z,32.80
2018-06-05T13:06:18.313Z,33.40
2018-06-05T13:08:47.341Z,32.20
2018-06-05T13:11:16.411Z,33.40
2018-06-05T13:13:45.467Z,33.13
2018-06-05T13:16:14.489Z,30.97
2018-06-05T13:18:43.521Z,31.97
2018-06-05T13:21:12.511Z,33.03
2018-06-05T13:23:41.504Z,32.33
2018-06-05T13:26:10.603Z,34.97
2018-06-05T13:28:40.401Z,33.40
2018-06-05T13:31:09.463Z,32.03
2018-06-05T13:33:38.463Z,32.27
2018-06-05T13:36:07.477Z,32.40
2018-06-05T13:38:36.526Z,31.47
2018-06-05T13:41:05.601Z,31.77
2018-06-05T13:43:34.637Z,33.97
2018-06-05T13:46:03.608Z,33.30
2018-06-05T13:48:32.583Z,31.83
2018-06-05T13:51:01.619Z,32.77
2018-06-05T13:53:30.742Z,33.07
2018-06-05T13:56:00.475Z,31.97
2018-06-05T13:58:29.597Z,31.60
2018-06-05T14:00:58.647Z,32.17
2018-06-05T14:03:27.749Z,31.10
2018-06-05T14:05:56.717Z,29.57
2018-06-05T14:08:25.760Z,30.20
2018-06-05T14:10:54.863Z,30.67
2018-06-05T14:13:23.859Z,30.37
2018-06-05T14:15:52.878Z,31.23
2018-06-05T14:18:21.937Z,29.37
2018-06-05T14:20:51.015Z,30.03
2018-06-05T14:23:20.033Z,31.60
2018-06-05T14:25:49.039Z,30.10
2018-06-05T14:28:18.083Z,28.73
2018-06-05T14:30:47.075Z,30.77
2018-06-05T14:33:16.045Z,28.57
2018-06-05T14:35:45.041Z,29.63
2018-06-05T14:38:14.049Z,29.27
2018-06-05T14:40:43.049Z,31.23
2018-06-05T14:43:12.053Z,29.53
2018-06-05T14:45:41.074Z,30.77
2018-06-05T14:48:10.093Z,30.10
2018-06-05T14:50:39.204Z,29.63
2018-06-05T14:53:08.263Z,31.20
2018-06-05T14:55:37.273Z,28.27
2018-06-05T14:58:06.995Z,29.53
2018-06-05T15:00:36.107Z,28.93
2018-06-05T15:03:05.225Z,28.93
2018-06-05T15:05:34.249Z,27.13
2018-06-05T15:08:03.216Z,28.50
2018-06-05T15:10:32.317Z,27.20
2018-06-05T15:13:01.372Z,26.33
2018-06-05T15:15:30.327Z,27.07
2018-06-05T15:17:59.465Z,26.87
2018-06-05T15:20:28.515Z,27.60
2018-06-05T15:22:57.487Z,26.23
2018-06-05T15:25:26.752Z,25.50
2018-06-05T15:27:55.760Z,26.57
2018-06-05T15:30:24.772Z,25.57
2018-06-05T15:32:53.789Z,25.93
2018-06-05T15:35:22.841Z,25.90
2018-06-05T15:37:51.933Z,23.93
2018-06-05T15:40:20.988Z,26.70
2018-06-05T15:42:49.958Z,25.27
2018-06-05T15:45:18.974Z,24.90
2018-06-05T15:47:48.002Z,25.47
2018-06-05T15:50:17.047Z,24.60
2018-06-05T15:52:46.085Z,24.00
2018-06-05T15:55:15.224Z,24.83
2018-06-05T15:57:44.230Z,23.73
2018-06-05T16:00:13.225Z,25.07
2018-06-05T16:02:42.318Z,24.83
2018-06-05T16:05:11.297Z,24.07
2018-06-05T16:07:40.368Z,24.23
2018-06-05T16:10:09.434Z,25.10
2018-06-05T16:12:38.496Z,25.00
2018-06-05T16:15:07.541Z,25.30
2018-06-05T16:17:36.586Z,24.27
2018-06-05T16:20:05.560Z,24.93
2018-06-05T16:22:34.592Z,23.87
2018-06-05T16:25:03.774Z,24.37
2018-06-05T16:27:32.757Z,23.17
2018-06-05T16:30:01.736Z,23.77
2018-06-05T16:32:30.778Z,22.90
2018-06-05T16:34:59.778Z,24.17
2018-06-05T16:37:28.770Z,22.80
2018-06-05T16:39:57.834Z,24.37
2018-06-05T16:42:26.884Z,22.67
2018-06-05T16:44:55.888Z,22.67
2018-06-05T16:47:24.956Z,22.37
2018-06-05T16:49:53.914Z,22.77
2018-06-05T16:52:22.964Z,23.57
2018-06-05T16:54:51.953Z,24.37
2018-06-05T16:57:20.930Z,24.30
2018-06-05T16:59:49.972Z,22.43
2018-06-05T17:02:18.981Z,22.57
2018-06-05T17:04:48.012Z,22.97
2018-06-05T17:07:16.967Z,23.63
2018-06-05T17:09:45.982Z,22.77
2018-06-05T17:12:15.034Z,22.90
2018-06-05T17:14:44.001Z,21.77
2018-06-05T17:17:13.139Z,24.83
2018-06-05T17:19:42.135Z,23.13
2018-06-05T17:22:11.165Z,22.50
2018-06-05T17:24:40.163Z,23.60
2018-06-05T17:27:09.206Z,22.33
2018-06-05T17:29:38.188Z,24.63
2018-06-05T17:32:06.963Z,22.80
2018-06-05T17:34:35.875Z,23.10
2018-06-05T17:37:04.851Z,23.80
2018-06-05T17:39:33.879Z,24.60
2018-06-05T17:42:02.914Z,23.27
2018-06-05T17:44:31.897Z,23.17
2018-06-05T17:47:00.935Z,24.47
2018-06-05T17:49:30.014Z,22.47
2018-06-05T17:51:59.021Z,23.47
2018-06-05T17:54:28.001Z,23.27
2018-06-05T17:56:57.021Z,23.00
2018-06-05T17:59:26.005Z,23.27
2018-06-05T18:01:55.139Z,21.40
2018-06-05T18:04:24.513Z,20.70
2018-06-05T18:06:53.485Z,20.67
2018-06-05T18:09:22.468Z,20.87
2018-06-05T18:11:51.480Z,19.63
2018-06-05T18:14:20.513Z,20.57
2018-06-05T18:16:49.553Z,20.07
2018-06-05T18:19:18.589Z,18.57
2018-06-05T18:21:47.635Z,20.17
2018-06-05T18:24:16.692Z,19.43
2018-06-05T18:26:45.689Z,21.67
2018-06-05T18:29:14.713Z,20.93
2018-06-05T18:31:43.724Z,21.60
2018-06-05T18:34:12.824Z,22.17
2018-06-05T18:36:41.810Z,21.40
2018-06-05T18:39:10.824Z,22.53
2018-06-05T18:41:39.946Z,21.90
2018-06-05T18:44:08.984Z,21.33
2018-06-05T18:46:38.022Z,21.47
2018-06-05T18:49:07.008Z,21.50
2018-06-05T18:51:36.051Z,20.60
2018-06-05T18:54:05.062Z,21.67
2018-06-05T18:56:34.034Z,21.53
2018-06-05T18:59:03.054Z,20.53
2018-06-05T19:01:32.047Z,21.40
2018-06-05T19:04:01.532Z,21.40
2018-06-05T19:06:30.606Z,21.10
2018-06-05T19:08:59.602Z,20.43
2018-06-05T19:11:28.623Z,20.03
2018-06-05T19:13:57.630Z,20.90
2018-06-05T19:16:26.325Z,20.53
2018-06-05T19:18:55.241Z,19.57
2018-06-05T19:21:24.235Z,20.40
2018-06-05T19:23:53.313Z,19.57
2018-06-05T19:26:22.017Z,19.07
2018-06-05T19:28:50.901Z,18.57
2018-06-05T19:31:19.995Z,19.77
2018-06-05T19:33:48.998Z,18.33
2018-06-05T19:36:17.989Z,18.13
2018-06-05T19:38:47.152Z,18.90
2018-06-05T19:41:16.177Z,19.73
2018-06-05T19:43:45.173Z,18.40
2018-06-05T19:46:14.186Z,18.87
2018-06-05T19:48:44.146Z,18.20
2018-06-05T19:51:13.090Z,19.27
2018-06-05T19:53:42.145Z,18.67
2018-06-05T19:56:11.128Z,17.80
2018-06-05T19:58:40.119Z,19.13
2018-06-05T20:01:09.251Z,19.13
2018-06-05T20:03:38.278Z,18.73
2018-06-05T20:06:07.313Z,18.33
2018-06-05T20:08:36.325Z,18.30
2018-06-05T20:11:05.325Z,19.70
2018-06-05T20:13:34.344Z,17.50
2018-06-05T20:16:03.333Z,18.43
2018-06-05T20:18:32.325Z,19.37
2018-06-05T20:21:01.325Z,18.83
2018-06-05T20:23:30.445Z,19.47
2018-06-05T20:25:59.447Z,17.90
2018-06-05T20:28:28.750Z,18.27
2018-06-05T20:30:57.763Z,18.87
2018-06-05T20:33:26.516Z,18.73
2018-06-05T20:35:55.444Z,18.50
2018-06-05T20:38:24.425Z,20.53
2018-06-05T20:40:53.407Z,19.43
2018-06-05T20:43:22.445Z,19.23
2018-06-05T20:45:51.539Z,18.77
2018-06-05T20:48:20.521Z,18.93
2018-06-05T20:50:49.509Z,18.90
2018-06-05T20:53:18.522Z,18.67
2018-06-05T20:55:47.554Z,18.33
2018-06-05T20:58:16.529Z,19.07
2018-06-05T21:00:45.587Z,18.27
2018-06-05T21:03:14.551Z,19.20
2018-06-05T21:05:43.620Z,20.20
2018-06-05T21:08:12.645Z,20.50
2018-06-05T21:10:41.620Z,20.97
2018-06-05T21:13:10.585Z,19.80
2018-06-05T21:15:39.601Z,22.00
2018-06-05T21:18:08.628Z,24.23
2018-06-05T21:20:37.750Z,23.30
2018-06-05T21:23:06.737Z,22.83
2018-06-05T21:25:35.818Z,23.27
2018-06-05T21:28:05.093Z,21.57
2018-06-05T21:30:34.065Z,22.90
2018-06-05T21:33:03.066Z,23.17
2018-06-05T21:35:32.061Z,22.00
2018-06-05T21:38:01.043Z,23.50
2018-06-05T21:40:30.007Z,23.53
2018-06-05T21:42:58.991Z,23.03
2018-06-05T21:45:28.009Z,22.83
2018-06-05T21:47:56.980Z,22.83
2018-06-05T21:50:25.945Z,22.73
2018-06-05T21:52:54.880Z,22.33
2018-06-05T21:55:23.821Z,22.83
2018-06-05T21:57:52.802Z,21.83
2018-06-05T22:00:23.378Z,22.93
2018-06-05T22:02:52.354Z,23.10
2018-06-05T22:05:21.407Z,22.33
2018-06-05T22:07:50.387Z,23.17
2018-06-05T22:10:19.384Z,22.60
2018-06-05T22:12:48.444Z,22.70
2018-06-05T22:15:17.442Z,22.30
2018-06-05T22:17:46.437Z,22.37
2018-06-05T22:20:15.424Z,22.80
2018-06-05T22:22:44.439Z,23.77
2018-06-05T22:25:13.458Z,23.27
2018-06-05T22:27:42.437Z,23.03
2018-06-05T22:30:11.458Z,21.63
2018-06-05T22:32:40.498Z,22.10
2018-06-05T22:35:09.498Z,22.67
2018-06-05T22:37:38.478Z,22.77
2018-06-05T22:40:07.464Z,21.43
2018-06-05T22:42:36.520Z,20.97
2018-06-05T22:45:05.518Z,21.33
2018-06-05T22:47:34.496Z,22.40
2018-06-05T22:50:03.546Z,21.77
2018-06-05T22:52:32.518Z,22.73
2018-06-05T22:55:01.540Z,22.03
2018-06-05T22:57:30.556Z,23.03
2018-06-05T22:59:59.540Z,22.47
2018-06-05T23:02:28.536Z,23.13
2018-06-05T23:04:57.528Z,22.70
2018-06-05T23:07:26.776Z,22.17
2018-06-05T23:09:55.752Z,21.17
2018-06-05T23:12:24.726Z,21.63
2018-06-05T23:14:53.784Z,20.93
2018-06-05T23:17:22.834Z,21.87
2018-06-05T23:19:51.799Z,20.87
2018-06-05T23:22:20.872Z,21.17
2018-06-05T23:24:49.853Z,22.07
2018-06-05T23:27:18.876Z,22.50
2018-06-05T23:29:47.852Z,21.17
2018-06-05T23:32:16.871Z,21.03
2018-06-05T23:34:45.900Z,22.60
2018-06-05T23:37:14.911Z,21.23
2018-06-05T23:39:43.932Z,22.13
2018-06-05T23:42:12.925Z,20.93
2018-06-05T23:44:41.929Z,21.17
2018-06-05T23:47:10.930Z,21.13
2018-06-05T23:49:39.913Z,21.30
2018-06-05T23:52:08.921Z,21.80
2018-06-05T23:54:37.909Z,21.43
2018-06-05T23:57:06.953Z,21.63
2018-06-05T23:59:35.698Z,20.97
